SAS988 RKSI-EKCH
Flight info
| Callsign | SAS988 |
|---|---|
| Flight time | N/A |
| Altitude | 39000 |
| Route | EGOBA2Y EGOBA Y697 LANAT Y51 SAMON Y142 GTC Y512 OATIS Y889 PUTER A590 POWAL DCT OPAKE DCT MARCC DCT JUJXI DCT 70N163W 75N155W DCT COALL DCT 83N120W 84N100W 85N080W DCT PELRI/M082F390 DCT 81N020W 72N000W/N0481F390 DCT XELRU DCT BOMGU DCT TOPLA L996 ERNOV |
| Aircraft | A333/H-SDE3GHIJ2J3J5M1RVWXY/LB2D1 |
Departure
| Time | 2026-05-07 19:26 |
|---|---|
| Airport | Incheon International Airport (RKSI) |
Arrival
| Time | N/A |
|---|---|
| Airport | Copenhagen Kastrup Airport (EKCH) |
| Time | Latitude | Longitude | Altitude | Speed | Heading |
|---|---|---|---|---|---|
| 2026-05-07 19:04 | 37.46552 | 126.44108 | 36 ft | 0 kts | 1° |
| 2026-05-07 19:10 | 37.46551 | 126.44108 | 9 ft | 1 kts | 1° |
| 2026-05-07 19:10 | 37.46527 | 126.44109 | 35 ft | 4 kts | 356° |
| 2026-05-07 19:11 | 37.46500 | 126.44113 | 35 ft | 4 kts | 347° |
| 2026-05-07 19:11 | 37.46475 | 126.44123 | 34 ft | 4 kts | 323° |
| 2026-05-07 19:11 | 37.46463 | 126.44141 | 32 ft | 3 kts | 244° |
| 2026-05-07 19:11 | 37.46467 | 126.44149 | 33 ft | 0 kts | 233° |
| 2026-05-07 19:18 | 37.46444 | 126.44111 | 33 ft | 12 kts | 233° |
| 2026-05-07 19:18 | 37.46378 | 126.43996 | 36 ft | 17 kts | 235° |
| 2026-05-07 19:18 | 37.46310 | 126.43875 | 36 ft | 17 kts | 234° |
| 2026-05-07 19:18 | 37.46244 | 126.43758 | 36 ft | 16 kts | 234° |
| 2026-05-07 19:19 | 37.46180 | 126.43647 | 36 ft | 15 kts | 234° |
| 2026-05-07 19:19 | 37.46119 | 126.43541 | 36 ft | 15 kts | 234° |
| 2026-05-07 19:19 | 37.46061 | 126.43436 | 36 ft | 14 kts | 236° |
| 2026-05-07 19:19 | 37.46004 | 126.43334 | 36 ft | 14 kts | 233° |
| 2026-05-07 19:20 | 37.45948 | 126.43237 | 36 ft | 13 kts | 234° |
| 2026-05-07 19:20 | 37.45895 | 126.43142 | 36 ft | 13 kts | 234° |
| 2026-05-07 19:20 | 37.45822 | 126.43115 | 37 ft | 11 kts | 159° |
| 2026-05-07 19:20 | 37.45761 | 126.43170 | 36 ft | 11 kts | 144° |
| 2026-05-07 19:21 | 37.45695 | 126.43230 | 36 ft | 14 kts | 144° |
| 2026-05-07 19:21 | 37.45596 | 126.43317 | 37 ft | 18 kts | 143° |
| 2026-05-07 19:21 | 37.45492 | 126.43410 | 36 ft | 18 kts | 145° |
| 2026-05-07 19:21 | 37.45389 | 126.43503 | 35 ft | 18 kts | 144° |
| 2026-05-07 19:22 | 37.45287 | 126.43594 | 35 ft | 18 kts | 147° |
| 2026-05-07 19:22 | 37.45186 | 126.43681 | 36 ft | 17 kts | 143° |
| 2026-05-07 19:22 | 37.45089 | 126.43770 | 36 ft | 17 kts | 146° |
| 2026-05-07 19:22 | 37.44995 | 126.43854 | 36 ft | 17 kts | 143° |
| 2026-05-07 19:23 | 37.44901 | 126.43936 | 37 ft | 16 kts | 145° |
| 2026-05-07 19:23 | 37.44810 | 126.44017 | 36 ft | 16 kts | 145° |
| 2026-05-07 19:23 | 37.44720 | 126.44098 | 36 ft | 16 kts | 144° |
| 2026-05-07 19:23 | 37.44629 | 126.44175 | 36 ft | 16 kts | 144° |
| 2026-05-07 19:24 | 37.44543 | 126.44260 | 36 ft | 15 kts | 142° |
| 2026-05-07 19:24 | 37.44479 | 126.44318 | 36 ft | 6 kts | 148° |
| 2026-05-07 19:24 | 37.44447 | 126.44322 | 36 ft | 4 kts | 199° |
| 2026-05-07 19:24 | 37.44422 | 126.44298 | 34 ft | 6 kts | 221° |
| 2026-05-07 19:25 | 37.44374 | 126.44215 | 34 ft | 13 kts | 236° |
| 2026-05-07 19:25 | 37.44352 | 126.44158 | 34 ft | 4 kts | 275° |
| 2026-05-07 19:25 | 37.44379 | 126.44132 | 34 ft | 13 kts | 327° |
| 2026-05-07 19:25 | 37.44599 | 126.43940 | 36 ft | 64 kts | 324° |
| 2026-05-07 19:26 | 37.45106 | 126.43485 | 34 ft | 113 kts | 325° |
| 2026-05-07 19:26 | 37.45877 | 126.42805 | 38 ft | 156 kts | 325° |
| 2026-05-07 19:26 | 37.46807 | 126.42024 | 573 ft | 161 kts | 324° |
| 2026-05-07 19:26 | 37.47705 | 126.41172 | 1279 ft | 160 kts | 315° |
| 2026-05-07 19:27 | 37.48408 | 126.40133 | 2113 ft | 153 kts | 312° |
| 2026-05-07 19:27 | 37.49063 | 126.39058 | 2696 ft | 157 kts | 311° |
| 2026-05-07 19:27 | 37.49741 | 126.37941 | 3143 ft | 163 kts | 311° |
| 2026-05-07 19:27 | 37.50296 | 126.36641 | 3564 ft | 176 kts | 292° |
| 2026-05-07 19:28 | 37.50475 | 126.35063 | 3979 ft | 191 kts | 282° |
| 2026-05-07 19:28 | 37.50530 | 126.33302 | 4204 ft | 211 kts | 279° |
| 2026-05-07 19:28 | 37.50567 | 126.31374 | 4407 ft | 232 kts | 278° |
| 2026-05-07 19:28 | 37.50604 | 126.29282 | 4820 ft | 243 kts | 277° |
| 2026-05-07 19:29 | 37.50641 | 126.27136 | 5387 ft | 247 kts | 277° |
| 2026-05-07 19:29 | 37.50683 | 126.24964 | 6019 ft | 250 kts | 277° |
| 2026-05-07 19:29 | 37.50727 | 126.22776 | 6689 ft | 250 kts | 277° |
| 2026-05-07 19:29 | 37.50599 | 126.20577 | 7357 ft | 257 kts | 263° |
| 2026-05-07 19:30 | 37.49822 | 126.18498 | 7994 ft | 273 kts | 238° |
| 2026-05-07 19:30 | 37.48289 | 126.16998 | 8650 ft | 289 kts | 213° |
| 2026-05-07 19:30 | 37.46414 | 126.16032 | 9350 ft | 293 kts | 207° |
| 2026-05-07 19:30 | 37.44489 | 126.15174 | 10013 ft | 294 kts | 205° |
| 2026-05-07 19:31 | 37.42438 | 126.14605 | 10379 ft | 315 kts | 188° |
| 2026-05-07 19:31 | 37.40198 | 126.15126 | 10579 ft | 344 kts | 158° |
| 2026-05-07 19:31 | 37.38217 | 126.16946 | 10779 ft | 364 kts | 135° |
| 2026-05-07 19:31 | 37.36543 | 126.19366 | 11017 ft | 379 kts | 130° |
| 2026-05-07 19:32 | 37.34832 | 126.21984 | 11236 ft | 393 kts | 129° |
| 2026-05-07 19:32 | 37.33334 | 126.24927 | 11471 ft | 407 kts | 113° |
| 2026-05-07 19:32 | 37.32611 | 126.28368 | 11883 ft | 411 kts | 94° |
| 2026-05-07 19:32 | 37.32492 | 126.31965 | 12384 ft | 414 kts | 88° |
| 2026-05-07 19:33 | 37.32485 | 126.35602 | 12908 ft | 418 kts | 88° |
| 2026-05-07 19:33 | 37.32481 | 126.39277 | 13451 ft | 422 kts | 88° |
| 2026-05-07 19:33 | 37.32466 | 126.42979 | 13943 ft | 426 kts | 88° |
| 2026-05-07 19:33 | 37.32441 | 126.46724 | 14363 ft | 431 kts | 89° |
| 2026-05-07 19:34 | 37.32407 | 126.50501 | 14783 ft | 435 kts | 89° |
| 2026-05-07 19:34 | 37.32369 | 126.54327 | 15149 ft | 441 kts | 89° |
| 2026-05-07 19:34 | 37.32326 | 126.58195 | 15573 ft | 445 kts | 90° |
| 2026-05-07 19:34 | 37.32282 | 126.62098 | 16012 ft | 448 kts | 90° |
| 2026-05-07 19:35 | 37.32235 | 126.66034 | 16443 ft | 452 kts | 90° |
| 2026-05-07 19:35 | 37.32187 | 126.69999 | 16873 ft | 456 kts | 90° |
| 2026-05-07 19:35 | 37.32141 | 126.73993 | 17279 ft | 460 kts | 90° |
| 2026-05-07 19:35 | 37.32096 | 126.78033 | 17626 ft | 465 kts | 91° |
| 2026-05-07 19:36 | 37.32049 | 126.82122 | 17992 ft | 470 kts | 91° |
| 2026-05-07 19:36 | 37.32000 | 126.86244 | 18387 ft | 473 kts | 91° |
| 2026-05-07 19:36 | 37.31949 | 126.90394 | 18728 ft | 477 kts | 91° |
| 2026-05-07 19:36 | 37.31897 | 126.94528 | 19110 ft | 480 kts | 91° |
| 2026-05-07 19:37 | 37.32023 | 126.98782 | 19418 ft | 484 kts | 81° |
| 2026-05-07 19:37 | 37.32861 | 127.02835 | 19621 ft | 489 kts | 65° |
| 2026-05-07 19:37 | 37.34400 | 127.06657 | 19888 ft | 490 kts | 57° |
| 2026-05-07 19:37 | 37.36111 | 127.10382 | 20188 ft | 494 kts | 56° |
| 2026-05-07 19:38 | 37.37850 | 127.14123 | 20499 ft | 498 kts | 57° |
| 2026-05-07 19:38 | 37.39598 | 127.17901 | 20785 ft | 502 kts | 57° |
| 2026-05-07 19:38 | 37.41352 | 127.21717 | 21139 ft | 505 kts | 57° |
| 2026-05-07 19:38 | 37.43105 | 127.25547 | 21389 ft | 509 kts | 57° |
| 2026-05-07 19:39 | 37.44895 | 127.29456 | 21483 ft | 516 kts | 58° |
| 2026-05-07 19:39 | 37.46681 | 127.33390 | 21898 ft | 518 kts | 58° |
| 2026-05-07 19:39 | 37.48329 | 127.37461 | 22168 ft | 525 kts | 67° |
| 2026-05-07 19:39 | 37.49451 | 127.41851 | 22427 ft | 529 kts | 76° |
| 2026-05-07 19:40 | 37.50306 | 127.46363 | 22751 ft | 531 kts | 79° |
| 2026-05-07 19:40 | 37.51033 | 127.50932 | 23011 ft | 535 kts | 81° |
| 2026-05-07 19:40 | 37.51717 | 127.55559 | 23223 ft | 540 kts | 82° |
| 2026-05-07 19:40 | 37.52395 | 127.60184 | 23515 ft | 543 kts | 82° |
| 2026-05-07 19:41 | 37.53096 | 127.64882 | 23766 ft | 547 kts | 81° |
| 2026-05-07 19:41 | 37.53815 | 127.69603 | 24010 ft | 550 kts | 81° |
| 2026-05-07 19:41 | 37.54548 | 127.74349 | 24193 ft | 554 kts | 82° |
| 2026-05-07 19:41 | 37.55297 | 127.79149 | 24361 ft | 560 kts | 82° |
| 2026-05-07 19:42 | 37.56059 | 127.83971 | 24657 ft | 562 kts | 81° |
| 2026-05-07 19:42 | 37.56828 | 127.88813 | 24919 ft | 565 kts | 81° |
| 2026-05-07 19:42 | 37.57598 | 127.93684 | 25141 ft | 567 kts | 81° |
| 2026-05-07 19:42 | 37.58368 | 127.98579 | 25323 ft | 570 kts | 82° |
| 2026-05-07 19:43 | 37.59139 | 128.03505 | 25532 ft | 574 kts | 82° |
| 2026-05-07 19:43 | 37.59912 | 128.08464 | 25770 ft | 576 kts | 82° |
| 2026-05-07 19:43 | 37.60676 | 128.13389 | 25998 ft | 579 kts | 82° |
| 2026-05-07 19:43 | 37.61448 | 128.18387 | 26338 ft | 581 kts | 82° |
| 2026-05-07 19:44 | 37.62221 | 128.23401 | 26549 ft | 582 kts | 82° |
| 2026-05-07 19:44 | 37.62992 | 128.28419 | 26784 ft | 585 kts | 82° |
| 2026-05-07 19:44 | 37.63765 | 128.33480 | 26944 ft | 587 kts | 82° |
| 2026-05-07 19:44 | 37.64534 | 128.38546 | 27198 ft | 589 kts | 83° |
| 2026-05-07 19:45 | 37.65312 | 128.43647 | 27406 ft | 592 kts | 82° |
| 2026-05-07 19:45 | 37.66091 | 128.48766 | 27617 ft | 595 kts | 83° |
| 2026-05-07 19:45 | 37.66870 | 128.53905 | 27892 ft | 597 kts | 83° |
| 2026-05-07 19:45 | 37.67653 | 128.59086 | 28079 ft | 601 kts | 83° |
| 2026-05-07 19:46 | 37.68432 | 128.64283 | 28297 ft | 603 kts | 83° |
| 2026-05-07 19:46 | 37.68881 | 128.69518 | 28505 ft | 596 kts | 95° |
| 2026-05-07 19:46 | 37.68612 | 128.74675 | 28825 ft | 583 kts | 108° |
| 2026-05-07 19:46 | 37.67633 | 128.79487 | 29101 ft | 566 kts | 121° |
| 2026-05-07 19:47 | 37.66004 | 128.83932 | 29383 ft | 552 kts | 129° |
| 2026-05-07 19:47 | 37.64152 | 128.88164 | 29621 ft | 548 kts | 132° |
| 2026-05-07 19:47 | 37.62189 | 128.92263 | 29909 ft | 543 kts | 133° |
| 2026-05-07 19:47 | 37.60188 | 128.96285 | 30334 ft | 540 kts | 134° |
| 2026-05-07 19:48 | 37.58193 | 129.00311 | 30609 ft | 540 kts | 133° |
| 2026-05-07 19:48 | 37.56212 | 129.04339 | 30853 ft | 541 kts | 133° |
| 2026-05-07 19:48 | 37.54245 | 129.08382 | 31191 ft | 540 kts | 133° |
| 2026-05-07 19:48 | 37.52288 | 129.12424 | 31450 ft | 540 kts | 133° |
| 2026-05-07 19:49 | 37.50358 | 129.16422 | 31710 ft | 540 kts | 133° |
| 2026-05-07 19:49 | 37.48410 | 129.20459 | 31970 ft | 539 kts | 133° |
| 2026-05-07 19:49 | 37.46462 | 129.24494 | 32200 ft | 539 kts | 133° |
| 2026-05-07 19:49 | 37.44513 | 129.28522 | 32437 ft | 539 kts | 133° |
| 2026-05-07 19:50 | 37.42561 | 129.32553 | 32682 ft | 538 kts | 133° |
| 2026-05-07 19:50 | 37.40611 | 129.36572 | 32861 ft | 538 kts | 132° |
| 2026-05-07 19:50 | 37.38661 | 129.40589 | 33085 ft | 538 kts | 132° |
| 2026-05-07 19:50 | 37.36708 | 129.44604 | 33319 ft | 538 kts | 133° |
| 2026-05-07 19:51 | 37.34758 | 129.48608 | 33551 ft | 537 kts | 133° |
| 2026-05-07 19:51 | 37.33464 | 129.51263 | 33697 ft | 537 kts | 133° |
| 2026-05-07 19:51 | 37.31514 | 129.55260 | 33908 ft | 536 kts | 133° |
| 2026-05-07 19:51 | 37.29564 | 129.59251 | 34072 ft | 535 kts | 133° |
| 2026-05-07 19:52 | 37.27624 | 129.63222 | 34415 ft | 531 kts | 133° |
| 2026-05-07 19:52 | 37.25692 | 129.67175 | 34655 ft | 529 kts | 133° |
| 2026-05-07 19:52 | 37.23762 | 129.71111 | 34789 ft | 530 kts | 133° |
| 2026-05-07 19:52 | 37.21823 | 129.75053 | 34835 ft | 532 kts | 133° |
| 2026-05-07 19:53 | 37.17911 | 129.82994 | 34823 ft | 533 kts | 132° |
| 2026-05-07 19:53 | 37.14049 | 129.90836 | 34831 ft | 531 kts | 132° |
| 2026-05-07 19:54 | 37.10163 | 129.98704 | 34829 ft | 530 kts | 133° |
| 2026-05-07 19:54 | 37.06281 | 130.06540 | 34820 ft | 529 kts | 132° |
| 2026-05-07 19:55 | 37.02404 | 130.14354 | 34801 ft | 525 kts | 132° |
| 2026-05-07 19:55 | 36.98555 | 130.22095 | 34832 ft | 523 kts | 132° |
| 2026-05-07 19:56 | 36.94698 | 130.29820 | 34825 ft | 523 kts | 132° |
| 2026-05-07 19:56 | 36.90844 | 130.37524 | 34841 ft | 522 kts | 132° |
| 2026-05-07 19:57 | 36.87004 | 130.45187 | 34828 ft | 522 kts | 132° |
| 2026-05-07 19:57 | 36.83139 | 130.52881 | 34828 ft | 522 kts | 131° |
| 2026-05-07 19:58 | 36.79276 | 130.60556 | 34832 ft | 522 kts | 131° |
| 2026-05-07 19:58 | 36.75404 | 130.68234 | 34831 ft | 522 kts | 131° |
| 2026-05-07 19:59 | 36.71534 | 130.75887 | 34839 ft | 522 kts | 132° |
| 2026-05-07 19:59 | 36.67655 | 130.83542 | 34836 ft | 522 kts | 132° |
| 2026-05-07 20:00 | 36.63801 | 130.91133 | 34816 ft | 522 kts | 131° |
| 2026-05-07 20:00 | 36.59914 | 130.98768 | 34839 ft | 522 kts | 131° |
| 2026-05-07 20:01 | 36.56026 | 131.06391 | 34839 ft | 522 kts | 131° |
| 2026-05-07 20:01 | 36.52124 | 131.14022 | 34809 ft | 522 kts | 131° |
| 2026-05-07 20:02 | 36.48226 | 131.21630 | 34846 ft | 521 kts | 131° |
| 2026-05-07 20:02 | 36.44324 | 131.29228 | 34832 ft | 521 kts | 131° |
| 2026-05-07 20:03 | 36.40425 | 131.36820 | 34828 ft | 522 kts | 129° |
| 2026-05-07 20:03 | 36.37623 | 131.45230 | 34839 ft | 543 kts | 108° |
| 2026-05-07 20:04 | 36.36825 | 131.54642 | 34841 ft | 552 kts | 98° |
| 2026-05-07 20:04 | 36.36551 | 131.64169 | 34840 ft | 552 kts | 96° |
| 2026-05-07 20:05 | 36.36336 | 131.73692 | 34875 ft | 551 kts | 96° |
| 2026-05-07 20:05 | 36.36067 | 131.83198 | 34841 ft | 550 kts | 97° |
| 2026-05-07 20:06 | 36.35758 | 131.92684 | 34835 ft | 549 kts | 97° |
| 2026-05-07 20:06 | 36.35433 | 132.02106 | 34829 ft | 549 kts | 97° |
| 2026-05-07 20:07 | 36.35099 | 132.11618 | 34834 ft | 548 kts | 97° |
| 2026-05-07 20:07 | 36.34762 | 132.21055 | 34842 ft | 547 kts | 97° |
| 2026-05-07 20:08 | 36.34420 | 132.30430 | 34831 ft | 547 kts | 97° |
| 2026-05-07 20:08 | 36.34069 | 132.39857 | 34831 ft | 547 kts | 98° |
| 2026-05-07 20:09 | 36.33711 | 132.49279 | 34827 ft | 546 kts | 98° |
| 2026-05-07 20:10 | 36.33161 | 132.63396 | 34811 ft | 545 kts | 98° |
| 2026-05-07 20:10 | 36.32787 | 132.72769 | 34828 ft | 544 kts | 98° |
| 2026-05-07 20:11 | 36.32406 | 132.82092 | 34829 ft | 544 kts | 98° |
| 2026-05-07 20:11 | 36.32016 | 132.91477 | 34831 ft | 544 kts | 98° |
| 2026-05-07 20:12 | 36.31619 | 133.00843 | 34834 ft | 544 kts | 98° |
| 2026-05-07 20:12 | 36.31216 | 133.10207 | 34831 ft | 544 kts | 98° |
| 2026-05-07 20:13 | 36.30805 | 133.19567 | 34833 ft | 544 kts | 98° |
| 2026-05-07 20:13 | 36.30390 | 133.28875 | 34817 ft | 544 kts | 98° |
| 2026-05-07 20:14 | 36.29964 | 133.38243 | 34833 ft | 544 kts | 98° |
| 2026-05-07 20:14 | 36.29530 | 133.47619 | 34831 ft | 544 kts | 98° |
| 2026-05-07 20:15 | 36.29089 | 133.56986 | 34829 ft | 544 kts | 98° |
| 2026-05-07 20:15 | 36.28641 | 133.66353 | 34818 ft | 544 kts | 99° |
| 2026-05-07 20:16 | 36.28188 | 133.75707 | 34838 ft | 542 kts | 99° |
| 2026-05-07 20:16 | 36.27729 | 133.85011 | 34825 ft | 541 kts | 99° |
| 2026-05-07 20:17 | 36.27259 | 133.94332 | 34827 ft | 541 kts | 99° |
| 2026-05-07 20:17 | 36.26787 | 134.03573 | 34834 ft | 540 kts | 99° |
| 2026-05-07 20:18 | 36.26308 | 134.12848 | 34833 ft | 538 kts | 99° |
| 2026-05-07 20:18 | 36.25821 | 134.22107 | 34841 ft | 538 kts | 99° |
| 2026-05-07 20:19 | 36.25327 | 134.31351 | 34845 ft | 538 kts | 99° |
| 2026-05-07 20:19 | 36.24826 | 134.40595 | 34842 ft | 538 kts | 99° |
| 2026-05-07 20:20 | 36.25066 | 134.49898 | 34850 ft | 548 kts | 82° |
| 2026-05-07 20:20 | 36.26110 | 134.54452 | 34847 ft | 552 kts | 70° |
| 2026-05-07 20:20 | 36.27615 | 134.58834 | 34847 ft | 553 kts | 67° |
| 2026-05-07 20:21 | 36.30977 | 134.67451 | 34848 ft | 555 kts | 64° |
| 2026-05-07 20:21 | 36.34441 | 134.75948 | 34850 ft | 555 kts | 64° |
| 2026-05-07 20:22 | 36.37894 | 134.84522 | 34846 ft | 555 kts | 64° |
| 2026-05-07 20:22 | 36.41307 | 134.93125 | 34853 ft | 555 kts | 65° |
| 2026-05-07 20:23 | 36.44702 | 135.01745 | 34852 ft | 556 kts | 65° |
| 2026-05-07 20:23 | 36.48098 | 135.10392 | 34856 ft | 556 kts | 65° |
| 2026-05-07 20:24 | 36.51482 | 135.19029 | 34851 ft | 556 kts | 65° |
| 2026-05-07 20:24 | 36.54863 | 135.27677 | 34849 ft | 556 kts | 65° |
| 2026-05-07 20:25 | 36.58213 | 135.36269 | 34854 ft | 556 kts | 65° |
| 2026-05-07 20:25 | 36.61600 | 135.44980 | 34850 ft | 555 kts | 65° |
| 2026-05-07 20:26 | 36.64937 | 135.53586 | 34849 ft | 555 kts | 65° |
| 2026-05-07 20:26 | 36.68285 | 135.62242 | 34844 ft | 554 kts | 65° |
| 2026-05-07 20:27 | 36.71622 | 135.70895 | 34854 ft | 553 kts | 65° |
| 2026-05-07 20:27 | 36.74879 | 135.79365 | 34836 ft | 553 kts | 65° |
| 2026-05-07 20:28 | 36.78195 | 135.88008 | 34845 ft | 551 kts | 65° |
| 2026-05-07 20:28 | 36.81480 | 135.96596 | 34845 ft | 551 kts | 65° |
| 2026-05-07 20:29 | 36.84775 | 136.05236 | 34845 ft | 551 kts | 65° |
| 2026-05-07 20:29 | 36.88072 | 136.13904 | 34845 ft | 551 kts | 66° |
| 2026-05-07 20:30 | 36.91354 | 136.22557 | 34848 ft | 551 kts | 66° |
| 2026-05-07 20:30 | 36.94642 | 136.31248 | 34848 ft | 551 kts | 66° |
| 2026-05-07 20:31 | 36.97912 | 136.39916 | 34847 ft | 551 kts | 66° |
| 2026-05-07 20:31 | 37.01159 | 136.48546 | 34852 ft | 551 kts | 66° |
| 2026-05-07 20:32 | 37.04418 | 136.57235 | 34851 ft | 551 kts | 66° |
| 2026-05-07 20:32 | 37.07669 | 136.65924 | 34851 ft | 551 kts | 66° |
| 2026-05-07 20:33 | 37.10912 | 136.74618 | 34850 ft | 550 kts | 66° |
| 2026-05-07 20:33 | 37.14139 | 136.83291 | 34847 ft | 548 kts | 66° |
| 2026-05-07 20:34 | 37.17360 | 136.91972 | 34849 ft | 548 kts | 66° |
| 2026-05-07 20:34 | 37.20553 | 137.00599 | 34848 ft | 548 kts | 66° |
| 2026-05-07 20:35 | 37.23753 | 137.09268 | 34849 ft | 547 kts | 66° |
| 2026-05-07 20:35 | 37.26948 | 137.17955 | 34856 ft | 548 kts | 66° |
| 2026-05-07 20:36 | 37.30140 | 137.26657 | 34851 ft | 548 kts | 66° |
| 2026-05-07 20:36 | 37.33320 | 137.35351 | 34850 ft | 548 kts | 66° |
| 2026-05-07 20:37 | 37.36498 | 137.44064 | 34843 ft | 547 kts | 67° |
| 2026-05-07 20:37 | 37.39642 | 137.52707 | 34844 ft | 547 kts | 67° |
| 2026-05-07 20:38 | 37.42799 | 137.61411 | 34847 ft | 547 kts | 67° |
| 2026-05-07 20:38 | 37.45949 | 137.70120 | 34846 ft | 546 kts | 67° |
| 2026-05-07 20:39 | 37.49085 | 137.78816 | 34847 ft | 545 kts | 67° |
| 2026-05-07 20:39 | 37.52215 | 137.87520 | 34849 ft | 545 kts | 67° |
| 2026-05-07 20:40 | 37.55324 | 137.96189 | 34853 ft | 545 kts | 67° |
| 2026-05-07 20:40 | 37.58442 | 138.04910 | 34851 ft | 545 kts | 67° |
| 2026-05-07 20:41 | 37.61554 | 138.13640 | 34858 ft | 545 kts | 67° |
| 2026-05-07 20:41 | 37.64137 | 138.20897 | 34843 ft | 544 kts | 66° |
| 2026-05-07 20:42 | 37.67237 | 138.29606 | 34854 ft | 543 kts | 67° |
| 2026-05-07 20:42 | 37.70311 | 138.38322 | 34853 ft | 543 kts | 67° |
| 2026-05-07 20:43 | 37.73387 | 138.47060 | 34855 ft | 543 kts | 67° |
| 2026-05-07 20:43 | 37.76455 | 138.55787 | 34852 ft | 544 kts | 67° |
| 2026-05-07 20:44 | 37.79521 | 138.64528 | 34852 ft | 543 kts | 67° |
| 2026-05-07 20:44 | 37.82582 | 138.73279 | 34853 ft | 543 kts | 67° |
| 2026-05-07 20:45 | 37.85613 | 138.81973 | 34841 ft | 543 kts | 67° |
| 2026-05-07 20:45 | 37.88663 | 138.90747 | 34835 ft | 544 kts | 67° |
| 2026-05-07 20:46 | 37.91702 | 138.99516 | 34827 ft | 544 kts | 67° |
| 2026-05-07 20:46 | 37.94715 | 139.08308 | 34831 ft | 543 kts | 71° |
| 2026-05-07 20:47 | 37.96473 | 139.17557 | 34830 ft | 539 kts | 83° |
| 2026-05-07 20:47 | 37.97567 | 139.26958 | 34855 ft | 539 kts | 85° |
| 2026-05-07 20:48 | 37.98523 | 139.36333 | 34856 ft | 539 kts | 85° |
| 2026-05-07 20:48 | 37.99482 | 139.45768 | 34856 ft | 539 kts | 85° |
| 2026-05-07 20:49 | 38.00458 | 139.55185 | 34854 ft | 537 kts | 85° |
| 2026-05-07 20:49 | 38.01426 | 139.64569 | 34861 ft | 536 kts | 85° |
| 2026-05-07 20:50 | 38.02383 | 139.73939 | 34872 ft | 535 kts | 85° |
| 2026-05-07 20:50 | 38.03339 | 139.83279 | 34865 ft | 533 kts | 85° |
| 2026-05-07 20:51 | 38.04282 | 139.92600 | 34863 ft | 533 kts | 85° |
| 2026-05-07 20:51 | 38.05217 | 140.01941 | 34859 ft | 533 kts | 85° |
| 2026-05-07 20:52 | 38.06137 | 140.11200 | 34866 ft | 532 kts | 85° |
| 2026-05-07 20:52 | 38.07055 | 140.20517 | 34861 ft | 530 kts | 85° |
| 2026-05-07 20:53 | 38.07965 | 140.29813 | 34860 ft | 530 kts | 86° |
| 2026-05-07 20:53 | 38.08865 | 140.39101 | 34861 ft | 530 kts | 86° |
| 2026-05-07 20:54 | 38.09757 | 140.48387 | 34851 ft | 529 kts | 85° |
| 2026-05-07 20:54 | 38.10635 | 140.57595 | 34851 ft | 528 kts | 86° |
| 2026-05-07 20:55 | 38.11510 | 140.66864 | 34838 ft | 528 kts | 86° |
| 2026-05-07 20:55 | 38.12379 | 140.76143 | 34821 ft | 528 kts | 85° |
| 2026-05-07 20:56 | 38.13241 | 140.85421 | 34832 ft | 528 kts | 85° |
| 2026-05-07 20:56 | 38.13458 | 140.94678 | 34831 ft | 522 kts | 98° |
| 2026-05-07 20:57 | 38.12617 | 141.03822 | 34829 ft | 521 kts | 102° |
| 2026-05-07 20:57 | 38.11575 | 141.12930 | 34835 ft | 521 kts | 102° |
| 2026-05-07 20:58 | 38.10505 | 141.22026 | 34837 ft | 521 kts | 102° |
| 2026-05-07 20:58 | 38.09454 | 141.31074 | 34840 ft | 521 kts | 102° |
| 2026-05-07 20:59 | 38.08403 | 141.40187 | 34842 ft | 521 kts | 102° |
| 2026-05-07 20:59 | 38.07348 | 141.49298 | 34843 ft | 521 kts | 102° |
| 2026-05-07 21:00 | 38.06285 | 141.58408 | 34838 ft | 521 kts | 102° |
| 2026-05-07 21:00 | 38.05216 | 141.67492 | 34844 ft | 521 kts | 102° |
| 2026-05-07 21:01 | 38.04140 | 141.76582 | 34848 ft | 521 kts | 102° |
| 2026-05-07 21:01 | 38.03063 | 141.85622 | 34847 ft | 521 kts | 102° |
| 2026-05-07 21:02 | 38.01971 | 141.94718 | 34837 ft | 521 kts | 102° |
| 2026-05-07 21:02 | 38.00872 | 142.03813 | 34845 ft | 521 kts | 102° |
| 2026-05-07 21:03 | 37.99773 | 142.12850 | 34848 ft | 521 kts | 102° |
| 2026-05-07 21:03 | 37.98658 | 142.21935 | 34848 ft | 521 kts | 102° |
| 2026-05-07 21:04 | 37.97536 | 142.31024 | 34838 ft | 521 kts | 103° |
| 2026-05-07 21:04 | 37.96408 | 142.40108 | 34851 ft | 521 kts | 103° |
| 2026-05-07 21:05 | 37.95275 | 142.49174 | 34854 ft | 521 kts | 103° |
| 2026-05-07 21:05 | 37.94141 | 142.58180 | 34854 ft | 521 kts | 103° |
| 2026-05-07 21:06 | 37.92994 | 142.67239 | 34855 ft | 520 kts | 103° |
| 2026-05-07 21:06 | 37.91843 | 142.76279 | 34853 ft | 520 kts | 103° |
| 2026-05-07 21:07 | 37.90684 | 142.85320 | 34854 ft | 519 kts | 103° |
| 2026-05-07 21:07 | 37.89520 | 142.94335 | 34854 ft | 519 kts | 103° |
| 2026-05-07 21:08 | 37.88349 | 143.03355 | 34855 ft | 519 kts | 104° |
| 2026-05-07 21:08 | 37.87180 | 143.12305 | 34856 ft | 517 kts | 104° |
| 2026-05-07 21:09 | 37.86000 | 143.21287 | 34855 ft | 517 kts | 104° |
| 2026-05-07 21:09 | 37.84813 | 143.30263 | 34858 ft | 516 kts | 104° |
| 2026-05-07 21:10 | 37.83622 | 143.39215 | 34853 ft | 516 kts | 104° |
| 2026-05-07 21:10 | 37.82457 | 143.48181 | 34848 ft | 518 kts | 100° |
| 2026-05-07 21:11 | 37.82764 | 143.57316 | 34865 ft | 526 kts | 79° |
| 2026-05-07 21:11 | 37.86024 | 143.70659 | 34866 ft | 530 kts | 72° |
| 2026-05-07 21:12 | 37.88452 | 143.79415 | 34843 ft | 531 kts | 72° |
| 2026-05-07 21:12 | 37.90872 | 143.88258 | 34857 ft | 531 kts | 73° |
| 2026-05-07 21:13 | 37.93251 | 143.97116 | 34843 ft | 531 kts | 73° |
| 2026-05-07 21:13 | 37.95610 | 144.05991 | 34862 ft | 531 kts | 73° |
| 2026-05-07 21:14 | 37.97961 | 144.14870 | 34845 ft | 531 kts | 73° |
| 2026-05-07 21:14 | 38.00306 | 144.23751 | 34862 ft | 531 kts | 73° |
| 2026-05-07 21:15 | 38.02646 | 144.32641 | 34859 ft | 531 kts | 73° |
| 2026-05-07 21:15 | 38.04967 | 144.41489 | 34859 ft | 532 kts | 73° |
| 2026-05-07 21:16 | 38.07295 | 144.50394 | 34855 ft | 532 kts | 73° |
| 2026-05-07 21:16 | 38.09619 | 144.59314 | 34858 ft | 532 kts | 73° |
| 2026-05-07 21:17 | 38.11938 | 144.68249 | 34862 ft | 532 kts | 73° |
| 2026-05-07 21:17 | 38.14250 | 144.77189 | 34861 ft | 532 kts | 74° |
| 2026-05-07 21:18 | 38.16558 | 144.86142 | 34862 ft | 533 kts | 74° |
| 2026-05-07 21:18 | 38.18844 | 144.95046 | 34862 ft | 533 kts | 74° |
| 2026-05-07 21:19 | 38.21138 | 145.04011 | 34860 ft | 533 kts | 74° |
| 2026-05-07 21:19 | 38.23427 | 145.12988 | 34859 ft | 534 kts | 74° |
| 2026-05-07 21:20 | 38.25709 | 145.21969 | 34860 ft | 534 kts | 74° |
| 2026-05-07 21:20 | 38.27983 | 145.30953 | 34858 ft | 531 kts | 74° |
| 2026-05-07 21:21 | 38.30242 | 145.39908 | 34859 ft | 531 kts | 74° |
| 2026-05-07 21:21 | 38.32757 | 145.48764 | 34859 ft | 533 kts | 64° |
| 2026-05-07 21:22 | 38.34687 | 145.52800 | 34853 ft | 534 kts | 52° |
| 2026-05-07 21:22 | 38.37104 | 145.56321 | 34875 ft | 533 kts | 45° |
| 2026-05-07 21:22 | 38.42448 | 145.62922 | 34860 ft | 535 kts | 41° |
| 2026-05-07 21:23 | 38.47960 | 145.69324 | 34860 ft | 535 kts | 41° |
| 2026-05-07 21:23 | 38.53469 | 145.75739 | 34856 ft | 535 kts | 41° |
| 2026-05-07 21:24 | 38.58915 | 145.82161 | 34856 ft | 536 kts | 41° |
| 2026-05-07 21:24 | 38.64390 | 145.88663 | 34853 ft | 536 kts | 41° |
| 2026-05-07 21:25 | 38.68932 | 145.94075 | 34864 ft | 536 kts | 41° |
| 2026-05-07 21:25 | 38.74392 | 146.00593 | 34844 ft | 538 kts | 41° |
| 2026-05-07 21:26 | 38.80757 | 146.08202 | 34843 ft | 539 kts | 41° |
| 2026-05-07 21:26 | 38.85351 | 146.13705 | 34839 ft | 539 kts | 41° |
| 2026-05-07 21:27 | 38.90793 | 146.20238 | 34853 ft | 539 kts | 41° |
| 2026-05-07 21:27 | 38.96269 | 146.26829 | 34836 ft | 539 kts | 41° |
| 2026-05-07 21:28 | 39.01745 | 146.33432 | 34854 ft | 539 kts | 41° |
| 2026-05-07 21:28 | 39.07234 | 146.40065 | 34836 ft | 541 kts | 41° |
| 2026-05-07 21:29 | 39.12684 | 146.46667 | 34840 ft | 542 kts | 41° |
| 2026-05-07 21:29 | 39.18168 | 146.53325 | 34832 ft | 542 kts | 41° |
| 2026-05-07 21:30 | 39.23652 | 146.59999 | 34833 ft | 542 kts | 41° |
| 2026-05-07 21:30 | 39.29129 | 146.66679 | 34836 ft | 542 kts | 41° |
| 2026-05-07 21:31 | 39.34611 | 146.73379 | 34840 ft | 542 kts | 41° |
| 2026-05-07 21:31 | 39.40095 | 146.80098 | 34827 ft | 543 kts | 41° |
| 2026-05-07 21:32 | 39.45572 | 146.86822 | 34825 ft | 543 kts | 41° |
| 2026-05-07 21:32 | 39.51062 | 146.93579 | 34826 ft | 544 kts | 42° |
| 2026-05-07 21:33 | 39.56511 | 147.00301 | 34826 ft | 544 kts | 42° |
| 2026-05-07 21:33 | 39.61986 | 147.07070 | 34824 ft | 544 kts | 42° |
| 2026-05-07 21:34 | 39.67471 | 147.13867 | 34824 ft | 544 kts | 42° |
| 2026-05-07 21:34 | 39.72945 | 147.20667 | 34820 ft | 544 kts | 42° |
| 2026-05-07 21:35 | 39.78410 | 147.27470 | 34823 ft | 544 kts | 42° |
| 2026-05-07 21:35 | 39.83872 | 147.34285 | 34823 ft | 544 kts | 42° |
| 2026-05-07 21:36 | 39.89305 | 147.41080 | 34825 ft | 545 kts | 42° |
| 2026-05-07 21:36 | 39.94786 | 147.47951 | 34823 ft | 546 kts | 42° |
| 2026-05-07 21:37 | 40.00259 | 147.54832 | 34826 ft | 545 kts | 42° |
| 2026-05-07 21:37 | 40.05714 | 147.61701 | 34826 ft | 544 kts | 42° |
| 2026-05-07 21:38 | 40.11166 | 147.68583 | 34825 ft | 546 kts | 42° |
| 2026-05-07 21:38 | 40.16596 | 147.75453 | 34829 ft | 547 kts | 42° |
| 2026-05-07 21:39 | 40.22065 | 147.82391 | 34831 ft | 547 kts | 42° |
| 2026-05-07 21:39 | 40.27532 | 147.89342 | 34852 ft | 547 kts | 42° |
| 2026-05-07 21:40 | 40.32981 | 147.96287 | 34831 ft | 546 kts | 42° |
| 2026-05-07 21:40 | 40.38439 | 148.03259 | 34830 ft | 547 kts | 42° |
| 2026-05-07 21:41 | 40.43894 | 148.10245 | 34831 ft | 547 kts | 42° |
| 2026-05-07 21:41 | 40.49344 | 148.17240 | 34834 ft | 548 kts | 42° |
| 2026-05-07 21:42 | 40.54769 | 148.24221 | 34837 ft | 549 kts | 42° |
| 2026-05-07 21:42 | 40.60221 | 148.31253 | 34837 ft | 549 kts | 42° |
| 2026-05-07 21:43 | 40.65684 | 148.38315 | 34837 ft | 550 kts | 42° |
| 2026-05-07 21:43 | 40.71139 | 148.45386 | 34837 ft | 550 kts | 42° |
| 2026-05-07 21:44 | 40.76594 | 148.52474 | 34837 ft | 550 kts | 42° |
| 2026-05-07 21:44 | 40.82047 | 148.59577 | 34838 ft | 551 kts | 43° |
| 2026-05-07 21:45 | 40.87504 | 148.66700 | 34843 ft | 551 kts | 43° |
| 2026-05-07 21:45 | 40.92918 | 148.73787 | 34843 ft | 551 kts | 42° |
| 2026-05-07 21:46 | 40.98377 | 148.80949 | 34842 ft | 551 kts | 43° |
| 2026-05-07 21:46 | 41.03819 | 148.88106 | 34842 ft | 551 kts | 43° |
| 2026-05-07 21:47 | 41.09235 | 148.95248 | 34843 ft | 551 kts | 43° |
| 2026-05-07 21:47 | 41.14665 | 149.02430 | 34842 ft | 551 kts | 43° |
| 2026-05-07 21:48 | 41.20087 | 149.09621 | 34844 ft | 551 kts | 43° |
| 2026-05-07 21:48 | 41.25513 | 149.16834 | 34848 ft | 551 kts | 42° |
| 2026-05-07 21:49 | 41.30925 | 149.24047 | 34837 ft | 550 kts | 43° |
| 2026-05-07 21:49 | 41.36331 | 149.31270 | 34842 ft | 550 kts | 42° |
| 2026-05-07 21:50 | 41.41746 | 149.38522 | 34846 ft | 552 kts | 43° |
| 2026-05-07 21:50 | 41.47164 | 149.45797 | 34845 ft | 552 kts | 43° |
| 2026-05-07 21:51 | 41.52546 | 149.53042 | 34864 ft | 553 kts | 43° |
| 2026-05-07 21:51 | 41.57967 | 149.60357 | 34848 ft | 553 kts | 42° |
| 2026-05-07 21:52 | 41.63378 | 149.67679 | 34851 ft | 552 kts | 42° |
| 2026-05-07 21:52 | 41.68776 | 149.75001 | 34853 ft | 553 kts | 42° |
| 2026-05-07 21:53 | 41.74184 | 149.82354 | 34851 ft | 555 kts | 43° |
| 2026-05-07 21:53 | 41.79588 | 149.89722 | 34849 ft | 555 kts | 43° |
| 2026-05-07 21:54 | 41.85000 | 149.97120 | 34873 ft | 556 kts | 42° |
| 2026-05-07 21:54 | 41.90383 | 150.04495 | 34852 ft | 555 kts | 42° |
| 2026-05-07 21:55 | 41.95775 | 150.11905 | 34856 ft | 553 kts | 42° |
| 2026-05-07 21:55 | 42.01156 | 150.19318 | 34859 ft | 554 kts | 42° |
| 2026-05-07 21:56 | 42.06539 | 150.26750 | 34858 ft | 554 kts | 42° |
| 2026-05-07 21:56 | 42.11917 | 150.34195 | 34859 ft | 554 kts | 42° |
| 2026-05-07 21:57 | 42.17301 | 150.41669 | 34884 ft | 556 kts | 42° |
| 2026-05-07 21:57 | 42.22685 | 150.49161 | 34861 ft | 555 kts | 42° |
| 2026-05-07 21:58 | 42.28014 | 150.56600 | 34864 ft | 554 kts | 42° |
| 2026-05-07 21:58 | 42.33365 | 150.64086 | 34859 ft | 554 kts | 42° |
| 2026-05-07 21:59 | 42.38721 | 150.71598 | 34866 ft | 554 kts | 42° |
| 2026-05-07 21:59 | 42.44072 | 150.79122 | 34860 ft | 554 kts | 42° |
| 2026-05-07 22:00 | 42.49424 | 150.86670 | 34873 ft | 555 kts | 42° |
| 2026-05-07 22:00 | 42.54777 | 150.94238 | 34870 ft | 556 kts | 42° |
| 2026-05-07 22:01 | 42.60133 | 151.01830 | 34865 ft | 557 kts | 42° |
| 2026-05-07 22:01 | 42.65482 | 151.09433 | 34867 ft | 557 kts | 42° |
| 2026-05-07 22:02 | 42.70797 | 151.17008 | 34873 ft | 557 kts | 42° |
| 2026-05-07 22:02 | 42.76138 | 151.24640 | 34873 ft | 557 kts | 42° |
| 2026-05-07 22:03 | 42.81481 | 151.32296 | 34875 ft | 557 kts | 42° |
| 2026-05-07 22:03 | 42.86820 | 151.39966 | 34879 ft | 558 kts | 42° |
| 2026-05-07 22:04 | 42.92171 | 151.47671 | 34881 ft | 559 kts | 42° |
| 2026-05-07 22:04 | 42.97487 | 151.55351 | 34884 ft | 559 kts | 42° |
| 2026-05-07 22:05 | 43.02827 | 151.63086 | 34883 ft | 559 kts | 42° |
| 2026-05-07 22:05 | 43.08159 | 151.70827 | 34884 ft | 559 kts | 42° |
| 2026-05-07 22:06 | 43.13486 | 151.78584 | 34883 ft | 559 kts | 42° |
| 2026-05-07 22:06 | 43.18810 | 151.86358 | 34890 ft | 559 kts | 42° |
| 2026-05-07 22:07 | 43.24123 | 151.94136 | 34890 ft | 559 kts | 42° |
| 2026-05-07 22:07 | 43.29429 | 152.01928 | 34889 ft | 558 kts | 42° |
| 2026-05-07 22:08 | 43.34731 | 152.09734 | 34895 ft | 558 kts | 42° |
| 2026-05-07 22:08 | 43.39990 | 152.17497 | 34897 ft | 558 kts | 42° |
| 2026-05-07 22:09 | 43.45277 | 152.25323 | 34891 ft | 557 kts | 42° |
| 2026-05-07 22:09 | 43.49692 | 152.31874 | 34910 ft | 557 kts | 42° |
| 2026-05-07 22:10 | 43.54936 | 152.39675 | 34896 ft | 558 kts | 42° |
| 2026-05-07 22:10 | 43.60213 | 152.47548 | 34899 ft | 558 kts | 42° |
| 2026-05-07 22:11 | 43.65484 | 152.55434 | 34904 ft | 558 kts | 42° |
| 2026-05-07 22:11 | 43.70740 | 152.63319 | 34907 ft | 558 kts | 42° |
| 2026-05-07 22:12 | 43.75990 | 152.71217 | 34907 ft | 557 kts | 42° |
| 2026-05-07 22:12 | 43.81224 | 152.79115 | 34904 ft | 556 kts | 42° |
| 2026-05-07 22:13 | 43.86423 | 152.86979 | 34909 ft | 556 kts | 43° |
| 2026-05-07 22:13 | 43.91646 | 152.94902 | 34912 ft | 556 kts | 42° |
| 2026-05-07 22:14 | 43.96865 | 153.02843 | 34909 ft | 556 kts | 42° |
| 2026-05-07 22:14 | 44.02078 | 153.10793 | 34912 ft | 556 kts | 43° |
| 2026-05-07 22:15 | 44.07286 | 153.18761 | 34922 ft | 556 kts | 42° |
| 2026-05-07 22:15 | 44.12493 | 153.26750 | 34921 ft | 557 kts | 42° |
| 2026-05-07 22:16 | 44.17691 | 153.34748 | 34921 ft | 557 kts | 42° |
| 2026-05-07 22:16 | 44.22901 | 153.42784 | 34915 ft | 559 kts | 43° |
| 2026-05-07 22:17 | 44.28111 | 153.50845 | 34918 ft | 560 kts | 43° |
| 2026-05-07 22:17 | 44.33317 | 153.58925 | 34916 ft | 560 kts | 43° |
| 2026-05-07 22:18 | 44.41091 | 153.71034 | 34920 ft | 560 kts | 43° |
| 2026-05-07 22:19 | 44.46297 | 153.79171 | 34920 ft | 560 kts | 43° |
| 2026-05-07 22:19 | 44.51495 | 153.87319 | 34942 ft | 560 kts | 43° |
| 2026-05-07 22:20 | 44.56694 | 153.95491 | 34922 ft | 563 kts | 42° |
| 2026-05-07 22:20 | 44.61904 | 154.03704 | 34923 ft | 563 kts | 42° |
| 2026-05-07 22:21 | 44.67114 | 154.11944 | 34921 ft | 563 kts | 43° |
| 2026-05-07 22:21 | 44.72285 | 154.20145 | 34925 ft | 563 kts | 42° |
| 2026-05-07 22:22 | 44.77470 | 154.28393 | 34923 ft | 563 kts | 43° |
| 2026-05-07 22:22 | 44.82652 | 154.36660 | 34920 ft | 563 kts | 43° |
| 2026-05-07 22:23 | 44.87824 | 154.44973 | 34935 ft | 565 kts | 43° |
| 2026-05-07 22:23 | 44.92952 | 154.53396 | 34921 ft | 566 kts | 43° |
| 2026-05-07 22:24 | 44.98071 | 154.61868 | 34925 ft | 566 kts | 43° |
| 2026-05-07 22:24 | 45.03187 | 154.70347 | 34924 ft | 566 kts | 43° |
| 2026-05-07 22:25 | 45.08294 | 154.78826 | 34924 ft | 565 kts | 43° |
| 2026-05-07 22:25 | 45.13362 | 154.87257 | 34919 ft | 565 kts | 43° |
| 2026-05-07 22:26 | 45.18452 | 154.95748 | 34921 ft | 565 kts | 43° |
| 2026-05-07 22:26 | 45.23542 | 155.04269 | 34925 ft | 566 kts | 43° |
| 2026-05-07 22:27 | 45.28637 | 155.12822 | 34922 ft | 567 kts | 43° |
| 2026-05-07 22:27 | 45.33729 | 155.21399 | 34922 ft | 567 kts | 43° |
| 2026-05-07 22:28 | 45.38784 | 155.29940 | 34923 ft | 567 kts | 43° |
| 2026-05-07 22:28 | 45.43850 | 155.38527 | 34919 ft | 566 kts | 43° |
| 2026-05-07 22:29 | 45.48919 | 155.47141 | 34922 ft | 566 kts | 43° |
| 2026-05-07 22:29 | 45.53971 | 155.55755 | 34928 ft | 566 kts | 43° |
| 2026-05-07 22:30 | 45.59026 | 155.64401 | 34920 ft | 568 kts | 43° |
| 2026-05-07 22:30 | 45.64087 | 155.73080 | 34922 ft | 569 kts | 43° |
| 2026-05-07 22:31 | 45.69148 | 155.81789 | 34934 ft | 569 kts | 43° |
| 2026-05-07 22:31 | 45.74195 | 155.90502 | 34914 ft | 569 kts | 43° |
| 2026-05-07 22:32 | 45.79212 | 155.99190 | 34921 ft | 569 kts | 43° |
| 2026-05-07 22:32 | 45.84254 | 156.07951 | 34918 ft | 569 kts | 43° |
| 2026-05-07 22:33 | 45.89293 | 156.16732 | 34934 ft | 569 kts | 43° |
| 2026-05-07 22:33 | 45.94331 | 156.25536 | 34916 ft | 571 kts | 43° |
| 2026-05-07 22:34 | 45.99376 | 156.34381 | 34908 ft | 572 kts | 43° |
| 2026-05-07 22:34 | 46.04409 | 156.43240 | 34918 ft | 572 kts | 43° |
| 2026-05-07 22:35 | 46.09440 | 156.52120 | 34913 ft | 572 kts | 43° |
| 2026-05-07 22:35 | 46.14438 | 156.60967 | 34911 ft | 572 kts | 43° |
| 2026-05-07 22:36 | 46.19464 | 156.69896 | 34917 ft | 572 kts | 43° |
| 2026-05-07 22:36 | 46.24474 | 156.78824 | 34937 ft | 572 kts | 43° |
| 2026-05-07 22:37 | 46.29489 | 156.87786 | 34915 ft | 573 kts | 43° |
| 2026-05-07 22:37 | 46.34471 | 156.96717 | 34930 ft | 574 kts | 43° |
| 2026-05-07 22:38 | 46.39477 | 157.05728 | 34908 ft | 573 kts | 43° |
| 2026-05-07 22:38 | 46.44468 | 157.14738 | 34911 ft | 573 kts | 43° |
| 2026-05-07 22:39 | 46.49461 | 157.23778 | 34911 ft | 573 kts | 43° |
| 2026-05-07 22:39 | 46.54406 | 157.32764 | 34907 ft | 572 kts | 43° |
| 2026-05-07 22:40 | 46.59371 | 157.41816 | 34907 ft | 572 kts | 43° |
| 2026-05-07 22:40 | 46.64331 | 157.50881 | 34906 ft | 573 kts | 43° |
| 2026-05-07 22:41 | 46.69293 | 157.59985 | 34908 ft | 573 kts | 43° |
| 2026-05-07 22:41 | 46.74241 | 157.69096 | 34905 ft | 572 kts | 43° |
| 2026-05-07 22:42 | 46.79148 | 157.78158 | 34906 ft | 572 kts | 43° |
| 2026-05-07 22:42 | 46.84084 | 157.87301 | 34913 ft | 572 kts | 43° |
| 2026-05-07 22:43 | 46.89004 | 157.96451 | 34900 ft | 571 kts | 43° |
| 2026-05-07 22:43 | 46.93912 | 158.05607 | 34901 ft | 571 kts | 43° |
| 2026-05-07 22:44 | 46.98812 | 158.14773 | 34899 ft | 572 kts | 43° |
| 2026-05-07 22:44 | 47.03709 | 158.23970 | 34900 ft | 571 kts | 43° |
| 2026-05-07 22:45 | 47.08593 | 158.33172 | 34907 ft | 571 kts | 43° |
| 2026-05-07 22:45 | 47.13432 | 158.42316 | 34897 ft | 571 kts | 43° |
| 2026-05-07 22:46 | 47.18298 | 158.51545 | 34900 ft | 571 kts | 43° |
| 2026-05-07 22:46 | 47.23148 | 158.60779 | 34895 ft | 570 kts | 43° |
| 2026-05-07 22:47 | 47.27997 | 158.70036 | 34892 ft | 570 kts | 43° |
| 2026-05-07 22:47 | 47.32835 | 158.79302 | 34891 ft | 570 kts | 43° |
| 2026-05-07 22:48 | 47.37663 | 158.88582 | 34892 ft | 569 kts | 43° |
| 2026-05-07 22:48 | 47.42444 | 158.97806 | 34892 ft | 569 kts | 43° |
| 2026-05-07 22:49 | 47.47251 | 159.07108 | 34892 ft | 569 kts | 43° |
| 2026-05-07 22:49 | 47.52050 | 159.16424 | 34887 ft | 569 kts | 43° |
| 2026-05-07 22:50 | 47.56823 | 159.25725 | 34885 ft | 569 kts | 44° |
| 2026-05-07 22:50 | 47.61607 | 159.35078 | 34886 ft | 569 kts | 44° |
| 2026-05-07 22:51 | 47.66399 | 159.44480 | 34930 ft | 570 kts | 43° |
| 2026-05-07 22:51 | 47.71174 | 159.53880 | 34887 ft | 570 kts | 44° |
| 2026-05-07 22:52 | 47.75944 | 159.63303 | 34880 ft | 570 kts | 44° |
| 2026-05-07 22:52 | 47.80681 | 159.72693 | 34879 ft | 571 kts | 44° |
| 2026-05-07 22:53 | 47.85444 | 159.82169 | 34873 ft | 570 kts | 44° |
| 2026-05-07 22:53 | 47.89385 | 159.90033 | 34870 ft | 570 kts | 44° |
| 2026-05-07 22:54 | 47.94118 | 159.99508 | 34879 ft | 570 kts | 44° |
| 2026-05-07 22:54 | 47.98860 | 160.09032 | 34878 ft | 570 kts | 44° |
| 2026-05-07 22:55 | 48.03547 | 160.18483 | 34875 ft | 570 kts | 44° |
| 2026-05-07 22:55 | 48.08263 | 160.28021 | 34870 ft | 570 kts | 44° |
| 2026-05-07 22:56 | 48.12973 | 160.37580 | 34867 ft | 570 kts | 44° |
| 2026-05-07 22:56 | 48.17682 | 160.47174 | 34870 ft | 570 kts | 44° |
| 2026-05-07 22:57 | 48.22367 | 160.56755 | 34867 ft | 569 kts | 44° |
| 2026-05-07 22:57 | 48.27044 | 160.66349 | 34862 ft | 569 kts | 44° |
| 2026-05-07 22:58 | 48.31647 | 160.76072 | 34862 ft | 572 kts | 46° |
| 2026-05-07 22:58 | 48.36158 | 160.85914 | 34905 ft | 572 kts | 46° |
| 2026-05-07 22:59 | 48.40665 | 160.95793 | 34854 ft | 573 kts | 46° |
| 2026-05-07 22:59 | 48.45151 | 161.05619 | 34873 ft | 573 kts | 46° |
| 2026-05-07 23:00 | 48.49671 | 161.15538 | 34867 ft | 573 kts | 46° |
| 2026-05-07 23:00 | 48.54183 | 161.25463 | 34868 ft | 573 kts | 46° |
| 2026-05-07 23:01 | 48.58687 | 161.35416 | 34864 ft | 573 kts | 46° |
| 2026-05-07 23:01 | 48.63175 | 161.45373 | 34864 ft | 573 kts | 46° |
| 2026-05-07 23:02 | 48.67660 | 161.55359 | 34862 ft | 573 kts | 46° |
| 2026-05-07 23:02 | 48.72107 | 161.65295 | 34902 ft | 574 kts | 46° |
| 2026-05-07 23:03 | 48.76602 | 161.75370 | 34855 ft | 576 kts | 46° |
| 2026-05-07 23:03 | 48.81088 | 161.85469 | 34858 ft | 577 kts | 46° |
| 2026-05-07 23:04 | 48.85534 | 161.95519 | 34860 ft | 577 kts | 46° |
| 2026-05-07 23:04 | 48.90001 | 162.05654 | 34859 ft | 577 kts | 46° |
| 2026-05-07 23:05 | 48.94465 | 162.15818 | 34858 ft | 577 kts | 46° |
| 2026-05-07 23:05 | 48.98915 | 162.25985 | 34862 ft | 577 kts | 46° |
| 2026-05-07 23:06 | 49.03369 | 162.36203 | 34862 ft | 578 kts | 46° |
| 2026-05-07 23:06 | 49.07807 | 162.46425 | 34900 ft | 578 kts | 46° |
| 2026-05-07 23:07 | 49.12243 | 162.56674 | 34862 ft | 580 kts | 46° |
| 2026-05-07 23:07 | 49.16660 | 162.66923 | 34864 ft | 581 kts | 47° |
| 2026-05-07 23:08 | 49.21094 | 162.77253 | 34867 ft | 581 kts | 47° |
| 2026-05-07 23:08 | 49.25520 | 162.87605 | 34867 ft | 581 kts | 47° |
| 2026-05-07 23:09 | 49.29939 | 162.97983 | 34868 ft | 581 kts | 47° |
| 2026-05-07 23:09 | 49.34345 | 163.08367 | 34870 ft | 581 kts | 47° |
| 2026-05-07 23:10 | 49.38745 | 163.18778 | 34868 ft | 581 kts | 47° |
| 2026-05-07 23:10 | 49.43140 | 163.29218 | 34879 ft | 581 kts | 47° |
| 2026-05-07 23:11 | 49.47492 | 163.39592 | 34869 ft | 580 kts | 47° |
| 2026-05-07 23:11 | 49.51850 | 163.50029 | 34873 ft | 580 kts | 48° |
| 2026-05-07 23:12 | 49.56205 | 163.60496 | 34873 ft | 580 kts | 48° |
| 2026-05-07 23:12 | 49.60550 | 163.70981 | 34875 ft | 579 kts | 48° |
| 2026-05-07 23:13 | 49.64867 | 163.81446 | 34873 ft | 577 kts | 48° |
| 2026-05-07 23:13 | 49.69174 | 163.91918 | 34873 ft | 577 kts | 49° |